Time;durP1;ratioP1;P1;durP2;ratioP2;P2;SDS_P1;SDS_P2;PMS_P1;PMS_P2;Temp;Humidity;BMP_temperature;BMP_pressure;BME280_temperature;BME280_humidity;BME280_pressure;Samples;Min_cycle;Max_cycle;Signal;HPM_P1;HPM_P2
2023/10/26 00:03:09;;;;;;;28.15;14.68;;;;;;;13.04;100.00;98543.66;8246048;28;20064;-60
2023/10/26 00:07:09;;;;;;;30.38;16.52;;;;;;;13.06;100.00;98553.28;8249253;28;20065;-59
2023/10/26 00:11:10;;;;;;;27.20;14.70;;;;;;;13.01;100.00;98552.19;8261146;28;20121;-60
2023/10/26 00:15:11;;;;;;;32.40;14.73;;;;;;;12.97;100.00;98561.75;8305619;28;20123;-59
2023/10/26 00:19:11;;;;;;;32.17;15.77;;;;;;;12.94;100.00;98562.16;8248997;28;20199;-59
2023/10/26 00:23:12;;;;;;;28.77;15.00;;;;;;;12.96;100.00;98562.81;8252502;28;20243;-59
2023/10/26 00:27:14;;;;;;;30.38;15.25;;;;;;;12.94;100.00;98570.31;8266775;28;20055;-59
2023/10/26 00:31:14;;;;;;;26.83;13.55;;;;;;;12.92;100.00;98584.06;8309285;28;20053;-59
2023/10/26 00:35:15;;;;;;;25.10;13.43;;;;;;;12.98;100.00;98595.97;8255775;28;20045;-60
2023/10/26 00:39:15;;;;;;;25.58;13.93;;;;;;;13.01;100.00;98603.75;8252123;28;20056;-59
2023/10/26 00:43:21;;;;;;;26.58;14.40;;;;;;;13.03;100.00;98607.09;8253905;28;20040;-60
2023/10/26 00:47:24;;;;;;;30.67;14.93;;;;;;;13.07;100.00;98600.22;8253469;28;20137;-60
2023/10/26 00:51:24;;;;;;;27.48;15.18;;;;;;;13.06;100.00;98596.69;8276101;28;20760;-60
2023/10/26 00:55:26;;;;;;;28.35;15.27;;;;;;;13.06;100.00;98606.69;8252967;28;20038;-60
2023/10/26 00:59:27;;;;;;;33.97;16.20;;;;;;;13.05;100.00;98605.03;8247911;28;20045;-59
2023/10/26 01:03:31;;;;;;;26.58;14.90;;;;;;;13.08;100.00;98615.44;8248594;28;20550;-60
2023/10/26 01:07:31;;;;;;;33.42;17.70;;;;;;;13.04;100.00;98619.63;8249716;28;20037;-60
2023/10/26 01:11:32;;;;;;;34.33;17.65;;;;;;;12.98;100.00;98625.81;8250805;28;20128;-60
2023/10/26 01:15:32;;;;;;;31.10;16.60;;;;;;;12.99;100.00;98625.66;8286466;28;20120;-57
2023/10/26 01:19:38;;;;;;;31.90;17.02;;;;;;;12.96;100.00;98625.19;8289212;28;20546;-60
2023/10/26 01:23:39;;;;;;;31.13;16.85;;;;;;;12.93;100.00;98639.16;8250277;28;20112;-60
2023/10/26 01:27:40;;;;;;;30.27;16.15;;;;;;;12.95;100.00;98637.06;8252332;28;20037;-61
2023/10/26 01:31:41;;;;;;;28.95;15.93;;;;;;;12.95;100.00;98643.34;8304580;28;20044;-59
2023/10/26 01:35:44;;;;;;;25.85;14.68;;;;;;;12.96;100.00;98633.34;8281799;28;20029;-59
2023/10/26 01:39:45;;;;;;;31.17;15.88;;;;;;;13.02;100.00;98643.41;8249697;28;20355;-59
2023/10/26 01:43:45;;;;;;;29.40;15.23;;;;;;;13.02;100.00;98643.41;8252654;28;20355;-59
2023/10/26 01:47:46;;;;;;;29.23;15.18;;;;;;;13.01;100.00;98649.84;8243588;28;20669;-59
2023/10/26 01:51:46;;;;;;;27.38;14.70;;;;;;;13.00;100.00;98651.75;8245809;28;20341;-59
2023/10/26 01:55:47;;;;;;;27.48;14.15;;;;;;;13.04;100.00;98654.88;8248458;28;20184;-60
2023/10/26 01:59:48;;;;;;;22.00;13.93;;;;;;;13.03;100.00;98664.06;8252339;28;20259;-61
2023/10/26 02:03:48;;;;;;;26.63;13.70;;;;;;;13.00;100.00;98662.59;8227504;28;20047;-60
2023/10/26 02:07:49;;;;;;;22.38;12.98;;;;;;;13.01;100.00;98652.56;8250562;28;20236;-60
2023/10/26 02:11:49;;;;;;;22.05;11.93;;;;;;;13.04;100.00;98649.44;8248290;28;20537;-60
2023/10/26 02:15:50;;;;;;;25.95;13.90;;;;;;;12.99;100.00;98660.06;8251252;28;20034;-60
2023/10/26 02:19:50;;;;;;;25.38;14.07;;;;;;;12.99;100.00;98660.06;8248292;28;20041;-61
2023/10/26 02:23:51;;;;;;;26.70;15.18;;;;;;;12.96;100.00;98657.75;8250138;28;20041;-61
2023/10/26 02:27:51;;;;;;;25.80;14.88;;;;;;;12.98;100.00;98663.78;8247992;28;20444;-61
2023/10/26 02:31:52;;;;;;;29.48;16.50;;;;;;;12.99;100.00;98670.91;8234125;28;20037;-61
2023/10/26 02:35:52;;;;;;;33.78;17.33;;;;;;;12.98;100.00;98671.91;8248181;28;20064;-60
2023/10/26 02:39:53;;;;;;;35.58;18.20;;;;;;;13.02;100.00;98662.41;8243939;28;20278;-60
2023/10/26 02:43:53;;;;;;;36.17;19.70;;;;;;;13.05;100.00;98664.72;8249726;28;20480;-60
2023/10/26 02:47:54;;;;;;;37.17;18.80;;;;;;;13.07;100.00;98673.47;8277669;28;20567;-60
2023/10/26 02:51:56;;;;;;;32.67;18.27;;;;;;;13.07;100.00;98670.75;8303088;28;20115;-60
2023/10/26 02:55:57;;;;;;;34.80;18.05;;;;;;;13.04;100.00;98673.88;8304781;28;20530;-60
2023/10/26 02:59:57;;;;;;;32.08;17.58;;;;;;;13.03;100.00;98673.06;8303365;28;20052;-61
2023/10/26 03:03:57;;;;;;;31.67;17.90;;;;;;;13.03;100.00;98666.78;8302542;28;20033;-60
2023/10/26 03:07:58;;;;;;;33.72;17.02;;;;;;;13.06;100.00;98660.94;8301557;28;20607;-60
2023/10/26 03:11:59;;;;;;;29.15;17.10;;;;;;;13.05;100.00;98657.38;8302588;28;20049;-60
2023/10/26 03:15:59;;;;;;;32.00;18.20;;;;;;;13.06;100.00;98664.50;8304481;28;20047;-60
2023/10/26 03:20:00;;;;;;;30.25;17.48;;;;;;;13.04;100.00;98669.28;8299158;28;20037;-60
2023/10/26 03:24:04;;;;;;;27.25;16.70;;;;;;;13.02;100.00;98675.97;8302603;28;20041;-61
2023/10/26 03:28:05;;;;;;;30.90;17.70;;;;;;;12.93;100.00;98660.84;8253331;28;20045;-60
2023/10/26 03:32:06;;;;;;;32.17;18.35;;;;;;;12.96;100.00;98665.88;8253499;28;20622;-60
2023/10/26 03:36:17;;;;;;;34.47;18.48;;;;;;;12.93;100.00;98666.28;8247691;28;20037;-60
2023/10/26 03:40:18;;;;;;;38.00;19.77;;;;;;;12.98;100.00;98669.22;8249925;28;20554;-60
2023/10/26 03:44:18;;;;;;;32.20;18.92;;;;;;;12.96;100.00;98668.59;8253839;28;20916;-59
2023/10/26 03:48:19;;;;;;;35.10;19.67;;;;;;;12.95;100.00;98675.03;8253135;28;20520;-60
2023/10/26 03:52:20;;;;;;;35.20;20.88;;;;;;;12.94;100.00;98674.22;8216771;28;20251;-60
2023/10/26 03:56:21;;;;;;;40.50;22.02;;;;;;;12.91;100.00;98660.22;8244519;28;20042;-60
2023/10/26 04:00:22;;;;;;;37.45;20.45;;;;;;;12.93;100.00;98667.09;8256221;28;20050;-60
2023/10/26 04:04:22;;;;;;;38.38;20.45;;;;;;;12.92;100.00;98662.72;8253312;28;20045;-59
2023/10/26 04:08:23;;;;;;;35.95;21.20;;;;;;;12.89;100.00;98671.25;8303404;28;20077;-60
2023/10/26 04:12:23;;;;;;;40.35;21.65;;;;;;;12.90;100.00;98666.69;8268016;28;20042;-58
2023/10/26 04:16:24;;;;;;;41.30;21.40;;;;;;;12.90;100.00;98662.06;8255628;28;20380;-57
2023/10/26 04:20:25;;;;;;;41.20;21.80;;;;;;;12.88;100.00;98668.75;8248350;28;20539;-58
2023/10/26 04:24:26;;;;;;;41.97;22.05;;;;;;;12.87;100.00;98683.34;8252277;28;20858;-58
2023/10/26 04:28:26;;;;;;;41.50;22.00;;;;;;;12.89;100.00;98670.41;8256917;28;20416;-59
2023/10/26 04:32:27;;;;;;;41.58;22.73;;;;;;;12.87;100.00;98664.38;8253726;28;20279;-58
2023/10/26 04:36:27;;;;;;;39.38;21.27;;;;;;;12.89;100.00;98662.28;8253132;28;20049;-59
2023/10/26 04:40:28;;;;;;;42.40;21.85;;;;;;;12.93;100.00;98663.56;8293977;28;20050;-57
2023/10/26 04:44:28;;;;;;;42.28;21.98;;;;;;;12.89;100.00;98654.13;8306160;28;20053;-59
2023/10/26 04:48:29;;;;;;;45.40;24.25;;;;;;;12.91;100.00;98652.06;8303672;28;20065;-60
2023/10/26 04:52:30;;;;;;;49.30;24.17;;;;;;;12.88;100.00;98650.59;8308139;28;20049;-60
2023/10/26 04:56:30;;;;;;;46.90;24.02;;;;;;;12.88;100.00;98657.91;8309487;28;20045;-59
2023/10/26 05:00:32;;;;;;;44.70;23.48;;;;;;;12.83;100.00;98657.66;8307886;28;20053;-59
2023/10/26 05:04:32;;;;;;;46.13;24.02;;;;;;;12.79;100.00;98654.53;8307131;28;20050;-59
2023/10/26 05:08:32;;;;;;;47.72;23.95;;;;;;;12.80;100.00;98645.34;8323770;28;20041;-59
2023/10/26 05:12:33;;;;;;;53.10;23.13;;;;;;;12.85;100.00;98650.16;8318019;28;20041;-59
2023/10/26 05:16:33;;;;;;;48.17;23.75;;;;;;;12.83;100.00;98646.81;8331798;28;20586;-60
2023/10/26 05:20:34;;;;;;;50.47;24.92;;;;;;;12.81;100.00;98646.19;8317378;28;20111;-60
2023/10/26 05:24:35;;;;;;;51.72;24.80;;;;;;;12.86;100.00;98654.53;8299367;28;20042;-60
2023/10/26 05:28:35;;;;;;;53.13;24.38;;;;;;;12.82;100.00;98647.84;8312580;28;20046;-60
2023/10/26 05:32:36;;;;;;;50.90;25.58;;;;;;;12.87;100.00;98650.81;8304845;28;20045;-59
2023/10/26 05:36:37;;;;;;;46.42;24.23;;;;;;;12.86;100.00;98649.13;8320108;28;20041;-61
2023/10/26 05:40:37;;;;;;;48.72;23.90;;;;;;;12.87;100.00;98642.69;8309158;28;20168;-61
2023/10/26 05:44:38;;;;;;;50.25;25.33;;;;;;;12.84;100.00;98634.94;8310927;28;20037;-59
2023/10/26 05:48:38;;;;;;;46.15;23.38;;;;;;;12.86;100.00;98638.25;8315935;28;20049;-59
2023/10/26 05:52:39;;;;;;;47.70;24.02;;;;;;;12.85;100.00;98636.59;8317250;28;20272;-59
2023/10/26 05:56:39;;;;;;;48.83;23.63;;;;;;;12.82;100.00;98637.00;8316561;28;20053;-59
2023/10/26 06:00:40;;;;;;;46.95;23.58;;;;;;;12.85;100.00;98644.75;8322863;28;20738;-60
2023/10/26 06:04:40;;;;;;;49.80;24.02;;;;;;;12.80;100.00;98642.63;8311754;28;20101;-59
2023/10/26 06:08:41;;;;;;;51.47;24.60;;;;;;;12.83;100.00;98644.09;8306096;28;20514;-58
2023/10/26 06:12:41;;;;;;;48.83;24.25;;;;;;;12.82;100.00;98642.44;8304465;28;20045;-60
2023/10/26 06:16:42;;;;;;;50.45;24.55;;;;;;;12.78;100.00;98639.28;8310848;28;20041;-62
2023/10/26 06:20:42;;;;;;;46.25;25.30;;;;;;;12.80;100.00;98639.91;8307101;28;20120;-62
2023/10/26 06:24:44;;;;;;;50.08;23.75;;;;;;;12.84;100.00;98637.66;8314048;28;20037;-60
2023/10/26 06:28:46;;;;;;;48.72;23.50;;;;;;;12.81;100.00;98636.16;8301869;28;20046;-62
2023/10/26 06:32:47;;;;;;;44.28;24.00;;;;;;;12.82;100.00;98637.00;8301974;28;20061;-62
2023/10/26 06:36:47;;;;;;;47.03;23.65;;;;;;;12.73;100.00;98638.19;8301395;28;20033;-62
2023/10/26 06:40:48;;;;;;;49.30;25.00;;;;;;;12.68;100.00;98635.25;8317536;28;20533;-62
2023/10/26 06:44:48;;;;;;;50.78;24.60;;;;;;;12.71;100.00;98637.56;8335953;28;20521;-61
2023/10/26 06:48:49;;;;;;;51.55;25.05;;;;;;;12.73;100.00;98643.63;8295706;28;20033;-61
2023/10/26 06:52:49;;;;;;;55.80;25.45;;;;;;;12.79;100.00;98642.81;8318986;28;20053;-61
2023/10/26 06:56:50;;;;;;;53.08;26.17;;;;;;;12.82;100.00;98654.13;8315195;28;20414;-61
2023/10/26 07:00:50;;;;;;;50.85;25.67;;;;;;;12.81;100.00;98651.59;8307598;28;20100;-61
2023/10/26 07:04:51;;;;;;;54.10;25.25;;;;;;;12.87;100.00;98634.53;8299746;28;20062;-61
2023/10/26 07:08:51;;;;;;;55.20;26.20;;;;;;;12.87;100.00;98629.94;8289991;28;20447;-61
2023/10/26 07:12:52;;;;;;;55.10;24.98;;;;;;;12.92;100.00;98623.91;8301651;28;20029;-61
2023/10/26 07:16:52;;;;;;;52.80;24.55;;;;;;;12.94;100.00;98619.97;8320341;28;20414;-60
2023/10/26 07:20:53;;;;;;;60.05;26.33;;;;;;;12.88;100.00;98620.78;8331342;28;20132;-61
2023/10/26 07:24:53;;;;;;;69.90;31.73;;;;;;;12.94;100.00;98624.56;8312969;28;20515;-62
2023/10/26 07:28:56;;;;;;;58.08;27.52;;;;;;;13.04;100.00;98617.75;8305843;28;20471;-62
2023/10/26 07:32:57;;;;;;;53.90;26.25;;;;;;;13.10;100.00;98618.81;8300853;28;20518;-62
2023/10/26 07:36:57;;;;;;;52.25;25.92;;;;;;;13.12;100.00;98622.16;8310113;28;20380;-61
2023/10/26 07:41:00;;;;;;;55.83;25.92;;;;;;;13.17;100.00;98617.78;8316353;28;20041;-62
2023/10/26 07:45:00;;;;;;;49.72;25.52;;;;;;;13.20;100.00;98619.25;8306056;28;20033;-62
2023/10/26 07:49:01;;;;;;;52.63;25.63;;;;;;;13.29;100.00;98615.31;8314401;28;20045;-62
2023/10/26 07:53:02;;;;;;;47.40;24.02;;;;;;;13.29;100.00;98612.59;8277298;28;20188;-61
2023/10/26 07:57:02;;;;;;;50.22;24.23;;;;;;;13.28;100.00;98613.66;8334882;28;20056;-61
2023/10/26 08:01:10;;;;;;;49.70;24.58;;;;;;;13.29;100.00;98618.03;8332859;28;20041;-62
2023/10/26 08:05:12;;;;;;;48.47;24.17;;;;;;;13.32;100.00;98629.31;8304019;28;20544;-62
2023/10/26 08:09:12;;;;;;;51.28;25.83;;;;;;;13.38;100.00;98630.38;8306692;28;20042;-61
2023/10/26 08:13:13;;;;;;;49.88;25.77;;;;;;;13.49;100.00;98613.50;8310373;28;20172;-61
2023/10/26 08:17:13;;;;;;;48.78;24.58;;;;;;;13.42;100.00;98620.81;8313526;28;20129;-60
2023/10/26 08:21:14;;;;;;;47.60;24.40;;;;;;;13.51;100.00;98617.69;8311281;28;20042;-61
2023/10/26 08:25:14;;;;;;;49.78;24.48;;;;;;;13.64;100.00;98623.13;8316854;28;20041;-61
2023/10/26 08:29:15;;;;;;;47.10;23.10;;;;;;;13.66;100.00;98631.06;8333347;28;20046;-60
2023/10/26 08:33:15;;;;;;;44.17;23.33;;;;;;;13.90;100.00;98644.06;8323315;28;20049;-60
2023/10/26 08:37:17;;;;;;;43.97;22.08;;;;;;;14.17;99.61;98656.63;8314607;28;20538;-60
2023/10/26 08:41:17;;;;;;;36.33;19.92;;;;;;;14.20;96.97;98644.50;8308345;28;20048;-61
2023/10/26 08:45:21;;;;;;;35.58;20.85;;;;;;;14.38;98.06;98626.53;8306301;28;20066;-61
2023/10/26 08:49:26;;;;;;;39.72;19.17;;;;;;;14.90;93.61;98631.88;8318030;28;20132;-60
2023/10/26 08:53:27;;;;;;;28.63;16.00;;;;;;;14.74;92.80;98637.78;8320824;28;20049;-61
2023/10/26 08:57:27;;;;;;;31.60;18.45;;;;;;;14.48;94.57;98654.13;8314137;28;20056;-60
2023/10/26 09:01:28;;;;;;;37.97;18.52;;;;;;;14.40;96.38;98656.25;8312967;28;20073;-60
2023/10/26 09:05:28;;;;;;;30.40;17.65;;;;;;;14.41;97.82;98647.88;8306917;28;20045;-60
2023/10/26 09:09:42;;;;;;;28.63;16.42;;;;;;;14.56;95.56;98659.38;8317272;28;20033;-59
2023/10/26 09:13:42;;;;;;;27.40;15.73;;;;;;;14.61;94.13;98664.97;8335862;28;20037;-61
2023/10/26 09:17:43;;;;;;;33.05;16.67;;;;;;;14.71;95.17;98659.97;8339280;28;20562;-60
2023/10/26 09:26:03;;;;;;;29.67;15.07;;;;;;;14.90;91.99;98655.50;8315426;27;20397;-57
2023/10/26 09:30:05;;;;;;;25.55;14.85;;;;;;;15.26;90.55;98645.78;8328819;28;20048;-57
2023/10/26 09:34:10;;;;;;;22.35;13.50;;;;;;;15.79;88.99;98642.81;8340812;28;20036;-58
2023/10/26 09:38:10;;;;;;;12.35;8.43;;;;;;;16.45;82.69;98649.44;8335751;28;20038;-58
2023/10/26 09:42:12;;;;;;;5.82;4.13;;;;;;;17.16;77.83;98636.94;8333396;28;20033;-58
2023/10/26 09:46:14;;;;;;;6.30;4.03;;;;;;;17.39;75.69;98642.53;8330673;28;20044;-58
2023/10/26 09:50:15;;;;;;;5.07;2.20;;;;;;;17.45;74.94;98641.66;8328929;28;20052;-59
2023/10/26 09:54:19;;;;;;;3.00;1.63;;;;;;;18.11;74.39;98630.59;8331971;28;20060;-59
2023/10/26 09:58:20;;;;;;;2.92;1.02;;;;;;;19.54;67.36;98622.44;8330296;28;20088;-59
2023/10/26 10:02:21;;;;;;;0.75;0.60;;;;;;;20.19;63.49;98615.47;8329993;28;20057;-58
2023/10/26 10:11:17;;;;;;;1.40;0.75;;;;;;;17.76;68.50;98603.16;8313709;28;20450;-58
2023/10/26 10:15:33;;;;;;;5.72;1.00;;;;;;;18.12;67.79;98613.97;8310385;28;20052;-58
2023/10/26 10:19:33;;;;;;;1.83;0.70;;;;;;;19.06;65.89;98611.81;8312354;28;20038;-58
2023/10/26 10:23:36;;;;;;;1.55;1.20;;;;;;;19.25;65.78;98618.81;8299854;28;20152;-58
2023/10/26 10:27:39;;;;;;;1.98;1.77;;;;;;;20.00;65.03;98616.75;8302629;28;20555;-58
2023/10/26 10:31:40;;;;;;;3.30;1.73;;;;;;;20.45;60.96;98611.22;8310978;28;20042;-59
2023/10/26 10:35:48;;;;;;;2.30;1.60;;;;;;;19.06;63.69;98600.88;8309703;28;20047;-58
2023/10/26 10:40:11;;;;;;;1.63;1.17;;;;;;;18.39;64.61;98609.72;8293915;28;20121;-58
2023/10/26 10:44:11;;;;;;;4.60;1.92;;;;;;;17.33;68.71;98599.75;8305481;28;20037;-58
2023/10/26 10:48:11;;;;;;;2.20;2.00;;;;;;;16.39;73.01;98579.38;8303973;28;20192;-58
2023/10/26 10:52:13;;;;;;;3.17;2.45;;;;;;;15.94;74.15;98583.34;8295533;28;20635;-59
2023/10/26 10:56:14;;;;;;;1.50;1.30;;;;;;;15.76;73.30;98575.94;8297386;28;20041;-58
2023/10/26 11:00:15;;;;;;;2.10;1.90;;;;;;;15.67;74.99;98569.09;8294075;28;20058;-58
2023/10/26 11:04:15;;;;;;;2.47;2.20;;;;;;;15.66;77.27;98572.88;8294754;28;20056;-58
2023/10/26 11:08:16;;;;;;;2.83;2.50;;;;;;;15.81;77.12;98578.00;8288954;28;20482;-58
2023/10/26 11:12:16;;;;;;;3.55;3.08;;;;;;;15.94;76.65;98564.28;8296543;28;20402;-57
2023/10/26 11:16:17;;;;;;;3.25;2.70;;;;;;;15.99;75.39;98550.81;8288237;28;20034;-61
2023/10/26 11:20:38;;;;;;;5.82;3.30;;;;;;;16.41;73.24;98548.09;8278629;28;20055;-58
2023/10/26 11:24:39;;;;;;;5.95;4.22;;;;;;;18.40;68.09;98537.53;8276004;28;20049;-58
2023/10/26 11:28:40;;;;;;;5.78;3.80;;;;;;;19.97;62.57;98523.97;8270171;28;20125;-58
2023/10/26 11:32:40;;;;;;;5.82;4.20;;;;;;;18.93;63.60;98529.09;8266990;28;20407;-58
2023/10/26 11:36:44;;;;;;;4.40;3.92;;;;;;;18.03;67.33;98530.59;8268985;28;20065;-57
2023/10/26 11:40:46;;;;;;;5.45;4.35;;;;;;;17.11;68.67;98535.78;8268821;28;20169;-59
2023/10/26 11:44:56;;;;;;;7.72;5.43;;;;;;;16.25;72.36;98548.69;8268916;28;20066;-58
2023/10/26 11:48:56;;;;;;;6.15;4.18;;;;;;;16.03;73.57;98543.84;8269358;28;20464;-57
2023/10/26 11:52:59;;;;;;;5.18;3.78;;;;;;;16.03;75.14;98541.13;8268600;28;20046;-59
2023/10/26 11:57:00;;;;;;;5.38;3.72;;;;;;;15.70;76.16;98547.69;8283204;28;20400;-57
2023/10/26 12:01:00;;;;;;;3.75;3.38;;;;;;;15.69;76.97;98546.03;8274966;28;20057;-58
2023/10/26 12:05:03;;;;;;;5.28;3.55;;;;;;;15.49;78.30;98564.41;8273727;28;20088;-58
2023/10/26 12:09:05;;;;;;;7.07;4.20;;;;;;;15.35;77.38;98538.28;8262099;28;20073;-59
2023/10/26 12:13:06;;;;;;;4.32;3.83;;;;;;;15.32;79.33;98529.72;8267767;28;20042;-59
2023/10/26 12:17:07;;;;;;;5.95;4.30;;;;;;;15.42;79.68;98533.66;8264613;28;20053;-58
2023/10/26 12:21:07;;;;;;;5.93;4.60;;;;;;;15.50;79.74;98536.09;8262824;28;20038;-57
2023/10/26 12:25:10;;;;;;;4.68;3.75;;;;;;;15.66;79.35;98521.13;8264717;28;20038;-57
2023/10/26 12:29:11;;;;;;;4.10;3.63;;;;;;;15.58;80.56;98527.69;8272079;28;20323;-58
2023/10/26 12:33:12;;;;;;;5.43;3.80;;;;;;;15.68;81.01;98521.75;8256098;28;20077;-57
2023/10/26 12:37:12;;;;;;;3.60;3.30;;;;;;;15.66;81.00;98530.13;8263208;28;20440;-59
2023/10/26 12:41:13;;;;;;;3.40;2.72;;;;;;;15.68;79.71;98522.56;8255911;28;20145;-58
2023/10/26 12:45:16;;;;;;;3.42;3.03;;;;;;;15.85;80.52;98505.69;8274131;28;20524;-58
2023/10/26 12:49:17;;;;;;;2.15;1.95;;;;;;;15.76;79.07;98490.66;8268300;28;20409;-57
2023/10/26 12:53:18;;;;;;;5.30;2.58;;;;;;;15.45;80.25;98495.09;8264826;28;20140;-58
2023/10/26 12:57:18;;;;;;;4.00;2.58;;;;;;;15.48;83.41;98494.66;8268397;28;20488;-59
2023/10/26 13:01:19;;;;;;;3.05;2.28;;;;;;;15.55;82.50;98487.25;8280488;28;20049;-59
2023/10/26 13:05:19;;;;;;;3.40;1.63;;;;;;;15.65;82.42;98484.88;8271545;28;20044;-59
2023/10/26 13:09:19;;;;;;;9.38;2.42;;;;;;;15.80;81.60;98479.09;8266341;28;20519;-59
2023/10/26 13:13:20;;;;;;;4.18;1.98;;;;;;;15.89;80.50;98469.56;8259930;28;20050;-59
2023/10/26 13:17:20;;;;;;;3.50;1.98;;;;;;;15.83;80.31;98459.59;8249678;28;20421;-58
2023/10/26 13:21:21;;;;;;;1.92;1.60;;;;;;;15.87;80.82;98474.41;8276163;28;20042;-57
2023/10/26 13:25:23;;;;;;;3.45;1.77;;;;;;;15.91;81.99;98478.34;8274351;28;20039;-57
2023/10/26 13:29:23;;;;;;;2.55;1.50;;;;;;;15.62;83.39;98479.88;8270860;28;20050;-59
2023/10/26 13:33:24;;;;;;;3.22;1.52;;;;;;;15.55;84.58;98484.53;8266904;28;20185;-58
2023/10/26 13:37:24;;;;;;;1.60;1.50;;;;;;;15.62;83.90;98479.88;8274393;28;20084;-59
2023/10/26 13:41:24;;;;;;;4.05;1.25;;;;;;;15.73;81.28;98487.31;8277784;28;20778;-60
2023/10/26 13:45:25;;;;;;;3.30;1.15;;;;;;;15.64;81.19;98477.75;8282993;28;20069;-59
2023/10/26 13:49:25;;;;;;;3.15;1.38;;;;;;;15.76;82.62;98474.31;8282831;28;20045;-60
2023/10/26 13:53:26;;;;;;;4.43;1.20;;;;;;;15.68;82.21;98462.63;8276341;28;20098;-59
2023/10/26 13:57:27;;;;;;;3.95;1.33;;;;;;;15.83;82.63;98462.31;8260356;28;20034;-59
2023/10/26 14:01:27;;;;;;;1.42;1.30;;;;;;;15.98;82.32;98451.06;8269167;28;20076;-59
2023/10/26 14:05:28;;;;;;;2.08;0.70;;;;;;;15.83;82.80;98458.75;8263912;28;20046;-60
2023/10/26 14:09:31;;;;;;;4.32;1.13;;;;;;;15.59;84.61;98453.06;8267977;28;20041;-60
2023/10/26 14:13:31;;;;;;;3.95;1.17;;;;;;;15.62;84.56;98466.25;8271425;28;20088;-59
2023/10/26 14:17:34;;;;;;;1.45;1.23;;;;;;;15.54;86.37;98455.66;8267413;28;20050;-59
2023/10/26 14:21:35;;;;;;;2.17;1.40;;;;;;;15.39;85.78;98468.75;8269264;28;20046;-59
2023/10/26 14:25:36;;;;;;;1.95;1.70;;;;;;;15.42;87.23;98462.88;8268185;28;20132;-59
2023/10/26 14:29:36;;;;;;;4.97;1.80;;;;;;;15.43;89.75;98453.63;8268100;28;20038;-60
2023/10/26 14:33:37;;;;;;;4.60;2.17;;;;;;;15.12;92.71;98472.69;8269035;28;20046;-60
2023/10/26 14:37:37;;;;;;;2.70;1.80;;;;;;;14.77;95.86;98476.88;8273894;28;20514;-58
2023/10/26 14:41:38;;;;;;;2.05;1.65;;;;;;;14.81;98.69;98480.81;8271425;28;20041;-59
2023/10/26 14:45:38;;;;;;;2.22;1.63;;;;;;;14.71;99.35;98469.56;8272938;28;20042;-59
2023/10/26 14:49:39;;;;;;;2.72;1.80;;;;;;;14.69;100.00;98463.50;8268572;28;20065;-59
2023/10/26 14:53:39;;;;;;;2.75;1.58;;;;;;;14.64;100.00;98468.75;8271085;28;20069;-60
2023/10/26 14:57:39;;;;;;;1.92;1.73;;;;;;;14.52;100.00;98447.91;8275536;28;20492;-60
2023/10/26 15:01:40;;;;;;;2.42;2.03;;;;;;;14.42;100.00;98447.53;8273651;28;20037;-60
2023/10/26 15:05:40;;;;;;;4.47;2.85;;;;;;;14.31;100.00;98443.59;8274082;28;20049;-60
2023/10/26 15:09:41;;;;;;;6.68;3.75;;;;;;;14.31;100.00;98449.03;8273452;28;20038;-60
2023/10/26 15:13:41;;;;;;;5.50;4.82;;;;;;;14.37;100.00;98440.03;8279134;28;20072;-60
2023/10/26 15:17:42;;;;;;;8.50;5.75;;;;;;;14.40;100.00;98436.88;8273676;28;20134;-60
2023/10/26 15:21:42;;;;;;;7.72;5.05;;;;;;;14.37;100.00;98421.00;8274226;28;20091;-60
2023/10/26 15:25:43;;;;;;;7.85;5.05;;;;;;;14.43;100.00;98431.03;8272077;28;20038;-60
2023/10/26 15:29:45;;;;;;;8.98;5.68;;;;;;;14.48;100.00;98420.31;8278500;28;20562;-60
2023/10/26 15:33:45;;;;;;;4.57;4.07;;;;;;;14.34;100.00;98413.28;8271562;28;20140;-59
2023/10/26 15:37:46;;;;;;;4.88;4.38;;;;;;;14.30;100.00;98417.47;8268909;28;20118;-60
2023/10/26 15:41:47;;;;;;;7.65;4.82;;;;;;;14.31;100.00;98419.16;8259479;28;20116;-60
2023/10/26 15:45:48;;;;;;;6.28;4.50;;;;;;;14.18;100.00;98408.28;8287629;28;20828;-61
2023/10/26 15:49:49;;;;;;;9.05;6.63;;;;;;;14.18;100.00;98413.72;8281805;28;20042;-61
2023/10/26 15:53:50;;;;;;;8.40;6.28;;;;;;;14.12;100.00;98409.13;8283681;28;20041;-62
2023/10/26 15:57:51;;;;;;;8.25;5.88;;;;;;;14.17;100.00;98406.59;8272202;28;20042;-61
2023/10/26 16:01:52;;;;;;;10.63;6.60;;;;;;;14.01;100.00;98417.97;8274717;28;20034;-61
2023/10/26 16:05:53;;;;;;;10.13;6.25;;;;;;;14.02;100.00;98425.06;8267698;28;20493;-60
2023/10/26 16:09:55;;;;;;;10.10;8.23;;;;;;;13.89;100.00;98427.81;8278398;28;20045;-58
2023/10/26 16:13:56;;;;;;;11.45;7.30;;;;;;;13.98;100.00;98440.13;8271089;28;20065;-58
2023/10/26 16:17:56;;;;;;;20.75;7.82;;;;;;;14.07;100.00;98443.44;8278631;28;20133;-57
2023/10/26 16:21:57;;;;;;;13.43;8.80;;;;;;;14.00;100.00;98427.13;8273831;28;20137;-58
2023/10/26 16:25:58;;;;;;;12.00;7.82;;;;;;;13.87;100.00;98432.59;8276394;28;20050;-58
2023/10/26 16:29:58;;;;;;;13.50;8.13;;;;;;;13.92;100.00;98451.84;8270080;28;20050;-58
2023/10/26 16:33:58;;;;;;;12.52;8.07;;;;;;;13.90;100.00;98453.91;8282061;28;20041;-58
2023/10/26 16:37:59;;;;;;;12.98;8.75;;;;;;;13.88;100.00;98456.03;8254645;28;20092;-58
2023/10/26 16:42:01;;;;;;;17.33;9.70;;;;;;;13.86;100.00;98452.69;8275200;28;20057;-58
2023/10/26 16:46:02;;;;;;;16.40;11.27;;;;;;;13.82;100.00;98441.38;8283944;28;20526;-59
2023/10/26 16:50:02;;;;;;;25.67;19.20;;;;;;;13.76;100.00;98441.41;8272634;28;20452;-58
2023/10/26 16:54:03;;;;;;;27.30;17.88;;;;;;;13.73;100.00;98442.66;8279118;28;20054;-59
2023/10/26 16:58:04;;;;;;;22.42;13.25;;;;;;;13.83;100.00;98442.25;8284106;28;20044;-61
2023/10/26 17:02:04;;;;;;;14.85;10.13;;;;;;;13.87;100.00;98438.03;8284979;28;20049;-61
2023/10/26 17:06:08;;;;;;;16.23;10.45;;;;;;;13.74;100.00;98427.22;8284744;28;20579;-61
2023/10/26 17:10:09;;;;;;;20.07;12.17;;;;;;;13.79;100.00;98430.13;8276723;28;20042;-60
2023/10/26 17:14:10;;;;;;;17.30;9.93;;;;;;;13.78;100.00;98432.00;8278553;28;20049;-60
2023/10/26 17:18:10;;;;;;;16.20;10.77;;;;;;;13.80;100.00;98418.22;8280311;28;20095;-58
2023/10/26 17:22:11;;;;;;;10.88;8.70;;;;;;;13.77;100.00;98418.63;8283268;28;20040;-58
2023/10/26 17:26:13;;;;;;;16.63;10.65;;;;;;;13.77;100.00;98424.06;8284099;28;20112;-59
2023/10/26 17:30:13;;;;;;;12.60;9.38;;;;;;;13.73;100.00;98431.78;8283569;28;20092;-58
2023/10/26 17:34:15;;;;;;;11.93;8.40;;;;;;;13.81;100.00;98439.72;8282585;28;20038;-58
2023/10/26 17:38:15;;;;;;;18.20;11.07;;;;;;;13.82;100.00;98427.00;8284052;28;20437;-59
2023/10/26 17:42:16;;;;;;;20.10;11.38;;;;;;;13.82;100.00;98437.88;8268674;28;20491;-58
2023/10/26 17:46:17;;;;;;;14.07;9.13;;;;;;;13.86;100.00;98436.38;8276500;28;20080;-60
2023/10/26 17:50:17;;;;;;;16.05;10.45;;;;;;;13.85;100.00;98432.00;8276020;28;20123;-60
2023/10/26 17:54:19;;;;;;;18.55;10.50;;;;;;;13.78;100.00;98423.00;8279029;28;20053;-59
2023/10/26 17:58:19;;;;;;;17.38;9.55;;;;;;;13.82;100.00;98440.59;8278059;28;20507;-58
2023/10/26 18:02:20;;;;;;;15.90;9.45;;;;;;;13.83;100.00;98428.66;8280246;28;20484;-59
2023/10/26 18:06:22;;;;;;;16.10;9.70;;;;;;;13.82;100.00;98432.44;8275734;28;20053;-58
2023/10/26 18:10:22;;;;;;;14.18;9.80;;;;;;;13.82;100.00;98429.72;8266400;28;20046;-60
2023/10/26 18:14:23;;;;;;;14.82;9.95;;;;;;;13.80;100.00;98415.50;8272681;28;20142;-60
2023/10/26 18:18:23;;;;;;;15.10;10.38;;;;;;;13.82;100.00;98430.53;8263359;28;20108;-58
2023/10/26 18:22:24;;;;;;;21.85;11.73;;;;;;;13.91;100.00;98424.88;8270194;28;20046;-59
2023/10/26 18:26:24;;;;;;;15.93;11.15;;;;;;;13.84;100.00;98422.16;8263412;28;20492;-59
2023/10/26 18:30:24;;;;;;;20.23;11.73;;;;;;;13.88;100.00;98419.88;8261759;28;20092;-58
2023/10/26 18:34:25;;;;;;;17.65;11.23;;;;;;;13.82;100.00;98405.28;8265529;28;20035;-58
2023/10/26 18:38:27;;;;;;;16.95;11.77;;;;;;;13.86;100.00;98417.38;8268501;28;20077;-61